createdAt,value
2022-12-08T00:00:46.712Z,18.30
2022-12-08T00:03:19.207Z,17.42
2022-12-08T00:06:01.859Z,18.02
2022-12-08T00:08:43.879Z,17.58
2022-12-08T00:11:15.009Z,18.20
2022-12-08T00:13:44.759Z,17.98
2022-12-08T00:16:14.819Z,18.90
2022-12-08T00:18:47.042Z,18.02
2022-12-08T00:21:16.634Z,16.63
2022-12-08T00:23:46.229Z,17.73
2022-12-08T00:26:15.806Z,17.65
2022-12-08T00:28:45.360Z,18.33
2022-12-08T00:31:15.261Z,17.48
2022-12-08T00:33:47.513Z,16.77
2022-12-08T00:36:17.738Z,16.45
2022-12-08T00:38:48.419Z,17.38
2022-12-08T00:41:19.006Z,17.15
2022-12-08T00:43:48.573Z,16.50
2022-12-08T00:46:18.267Z,17.30
2022-12-08T00:48:50.432Z,17.55
2022-12-08T00:51:20.071Z,16.92
2022-12-08T00:53:49.642Z,16.30
2022-12-08T00:56:19.291Z,15.82
2022-12-08T00:58:49.985Z,16.48
2022-12-08T01:01:19.826Z,16.10
2022-12-08T01:03:52.171Z,16.48
2022-12-08T01:06:21.860Z,16.88
2022-12-08T01:08:51.527Z,16.92
2022-12-08T01:11:22.328Z,16.42
2022-12-08T01:13:52.135Z,16.50
2022-12-08T01:16:23.006Z,16.67
2022-12-08T01:18:55.355Z,16.48
2022-12-08T01:21:24.986Z,16.48
2022-12-08T01:23:54.806Z,16.80
2022-12-08T01:26:24.898Z,17.58
2022-12-08T01:28:54.516Z,16.63
2022-12-08T01:31:25.013Z,17.23
2022-12-08T01:33:58.975Z,17.00
2022-12-08T01:36:30.251Z,17.23
2022-12-08T01:39:01.305Z,16.42
2022-12-08T01:41:33.400Z,16.45
2022-12-08T01:44:04.609Z,17.17
2022-12-08T01:46:35.936Z,16.65
2022-12-08T01:49:12.723Z,17.42
2022-12-08T01:51:47.106Z,17.13
2022-12-08T01:54:17.048Z,16.98
2022-12-08T01:56:52.428Z,17.48
2022-12-08T01:59:22.200Z,17.45
2022-12-08T02:01:53.885Z,19.02
2022-12-08T02:04:26.155Z,17.90
2022-12-08T02:06:56.560Z,19.98
2022-12-08T02:09:27.649Z,19.92
2022-12-08T02:11:59.044Z,19.58
2022-12-08T02:14:28.980Z,19.30
2022-12-08T02:17:04.480Z,19.98
2022-12-08T02:19:59.713Z,19.13
2022-12-08T02:22:33.151Z,19.13
2022-12-08T02:25:08.698Z,18.85
2022-12-08T02:27:45.822Z,19.20
2022-12-08T02:30:21.934Z,18.65
2022-12-08T02:33:19.008Z,19.60
2022-12-08T02:35:58.151Z,19.00
2022-12-08T02:38:34.598Z,19.25
2022-12-08T02:41:12.023Z,19.13
2022-12-08T02:43:45.140Z,18.13
2022-12-08T02:46:18.566Z,18.98
2022-12-08T02:48:48.233Z,18.17
2022-12-08T02:51:20.744Z,17.35
2022-12-08T02:53:50.943Z,18.20
2022-12-08T02:56:33.915Z,19.00
2022-12-08T02:59:15.189Z,17.92
2022-12-08T03:01:58.498Z,17.52
2022-12-08T03:04:34.048Z,18.10
2022-12-08T03:07:09.792Z,16.50
2022-12-08T03:09:43.115Z,16.88
2022-12-08T03:12:17.055Z,16.03
2022-12-08T03:14:49.765Z,13.48
2022-12-08T03:17:20.404Z,14.18
2022-12-08T03:19:51.124Z,13.63
2022-12-08T03:22:26.836Z,13.48
2022-12-08T03:24:56.855Z,13.93
2022-12-08T03:27:28.618Z,12.60
2022-12-08T03:29:59.526Z,12.38
2022-12-08T03:32:33.118Z,11.60
2022-12-08T03:35:04.971Z,11.77
2022-12-08T03:37:37.634Z,10.98
2022-12-08T03:40:08.203Z,11.52
2022-12-08T03:42:37.788Z,11.70
2022-12-08T03:45:08.237Z,11.43
2022-12-08T03:47:37.797Z,11.55
2022-12-08T03:50:08.805Z,11.95
2022-12-08T03:52:41.020Z,11.63
2022-12-08T03:55:11.135Z,11.75
2022-12-08T03:57:40.895Z,11.35
2022-12-08T04:00:14.984Z,11.73
2022-12-08T04:02:44.822Z,11.18
2022-12-08T04:05:14.420Z,11.07
2022-12-08T04:07:46.660Z,11.98
2022-12-08T04:10:16.340Z,11.27
2022-12-08T04:12:45.880Z,10.48
2022-12-08T04:15:15.474Z,11.02
2022-12-08T04:17:45.063Z,11.63
2022-12-08T04:20:15.000Z,10.95
2022-12-08T04:22:47.226Z,11.15
2022-12-08T04:25:17.106Z,11.55
2022-12-08T04:27:46.697Z,12.23
2022-12-08T04:30:16.545Z,11.82
2022-12-08T04:32:47.653Z,11.50
2022-12-08T04:35:17.486Z,11.25
2022-12-08T04:37:49.700Z,11.20
2022-12-08T04:40:19.320Z,12.38
2022-12-08T04:42:49.102Z,11.27
2022-12-08T04:45:19.145Z,11.63
2022-12-08T04:47:49.474Z,12.07
2022-12-08T04:50:19.235Z,11.63
2022-12-08T04:52:51.453Z,12.73
2022-12-08T04:55:21.145Z,11.88
2022-12-08T04:57:51.018Z,11.90
2022-12-08T05:00:21.488Z,12.48
2022-12-08T05:02:51.130Z,11.60
2022-12-08T05:05:20.935Z,12.10
2022-12-08T05:07:53.746Z,12.18
2022-12-08T05:10:23.390Z,12.15
2022-12-08T05:12:52.954Z,12.93
2022-12-08T05:15:22.674Z,12.68
2022-12-08T05:17:52.361Z,13.48
2022-12-08T05:20:22.390Z,12.60
2022-12-08T05:22:54.621Z,13.27
2022-12-08T05:25:24.199Z,14.10
2022-12-08T05:28:06.218Z,13.93
2022-12-08T05:30:41.273Z,13.15
2022-12-08T05:33:11.074Z,13.90
2022-12-08T05:35:40.648Z,14.27
2022-12-08T05:38:13.169Z,14.70
2022-12-08T05:40:43.580Z,14.02
2022-12-08T05:43:13.643Z,14.70
2022-12-08T05:45:43.349Z,15.82
2022-12-08T05:48:13.146Z,15.10
2022-12-08T05:50:42.811Z,16.05
2022-12-08T05:53:15.003Z,16.02
2022-12-08T05:55:44.534Z,17.55
2022-12-08T05:58:15.443Z,18.25
2022-12-08T06:00:45.235Z,18.27
2022-12-08T06:03:15.414Z,17.38
2022-12-08T06:05:45.798Z,18.63
2022-12-08T06:08:18.193Z,18.90
2022-12-08T06:10:48.311Z,17.77
2022-12-08T06:13:18.067Z,18.65
2022-12-08T06:15:47.599Z,19.40
2022-12-08T06:18:17.143Z,19.85
2022-12-08T06:20:46.715Z,20.45
2022-12-08T06:23:18.845Z,21.80
2022-12-08T06:25:48.467Z,18.55
2022-12-08T06:28:18.004Z,19.40
2022-12-08T06:30:47.613Z,19.73
2022-12-08T06:33:17.398Z,19.00
2022-12-08T06:35:47.004Z,19.67
2022-12-08T06:38:19.140Z,18.40
2022-12-08T06:40:56.201Z,18.45
2022-12-08T06:43:26.256Z,18.13
2022-12-08T06:45:55.914Z,18.45
2022-12-08T06:48:26.050Z,19.42
2022-12-08T06:50:55.922Z,18.85
2022-12-08T06:53:28.051Z,17.45
2022-12-08T06:55:59.795Z,17.40
2022-12-08T06:58:29.720Z,17.15
2022-12-08T07:00:59.319Z,16.95
2022-12-08T07:03:28.923Z,15.82
2022-12-08T07:06:03.742Z,15.98
2022-12-08T07:08:37.766Z,16.63
2022-12-08T07:11:15.278Z,16.35
2022-12-08T07:13:47.825Z,17.08
2022-12-08T07:16:17.443Z,16.77
2022-12-08T07:18:47.080Z,17.33
2022-12-08T07:21:17.599Z,16.60
2022-12-08T07:23:57.345Z,16.33
2022-12-08T07:26:28.155Z,17.73
2022-12-08T07:28:57.720Z,16.95
2022-12-08T07:31:28.970Z,15.73
2022-12-08T07:33:59.288Z,17.52
2022-12-08T07:36:29.288Z,17.90
2022-12-08T07:39:01.636Z,19.40
2022-12-08T07:41:31.199Z,19.75
2022-12-08T07:44:00.783Z,17.50
2022-12-08T07:46:30.413Z,18.42
2022-12-08T07:49:00.112Z,17.77
2022-12-08T07:51:29.595Z,17.70
2022-12-08T07:54:01.725Z,18.13
2022-12-08T07:56:31.316Z,17.13
2022-12-08T07:59:00.856Z,17.77
2022-12-08T08:01:32.130Z,17.33
2022-12-08T08:04:04.570Z,17.33
2022-12-08T08:06:34.797Z,17.85
2022-12-08T08:09:07.169Z,18.13
2022-12-08T08:11:36.728Z,18.33
2022-12-08T08:14:06.599Z,16.90
2022-12-08T08:16:38.607Z,14.98
2022-12-08T08:19:08.491Z,14.27
2022-12-08T08:21:46.292Z,13.57
2022-12-08T08:24:18.725Z,13.35
2022-12-08T08:26:48.299Z,13.38
2022-12-08T08:29:17.894Z,13.25
2022-12-08T08:31:47.466Z,14.93
2022-12-08T08:34:17.054Z,13.88
2022-12-08T08:36:46.653Z,14.57
2022-12-08T08:39:18.977Z,14.90
2022-12-08T08:41:48.584Z,14.60
2022-12-08T08:44:18.323Z,14.88
2022-12-08T08:46:47.968Z,14.85
2022-12-08T08:49:18.739Z,16.05
2022-12-08T08:51:48.377Z,16.58
2022-12-08T08:54:20.556Z,16.20
2022-12-08T08:56:50.877Z,17.73
2022-12-08T08:59:20.380Z,17.35
2022-12-08T09:01:50.025Z,16.50
2022-12-08T09:04:19.732Z,17.52
2022-12-08T09:06:49.595Z,17.30
2022-12-08T09:09:21.748Z,16.50
2022-12-08T09:11:51.300Z,17.70
2022-12-08T09:14:21.064Z,17.77
2022-12-08T09:16:50.640Z,18.00
2022-12-08T09:19:20.242Z,17.42
2022-12-08T09:21:49.835Z,17.98
2022-12-08T09:24:23.227Z,16.23
2022-12-08T09:26:52.821Z,17.02
2022-12-08T09:29:22.485Z,16.50
2022-12-08T09:31:52.302Z,17.80
2022-12-08T09:34:22.022Z,16.52
2022-12-08T09:36:51.673Z,15.80
2022-12-08T09:39:23.820Z,17.30
2022-12-08T09:41:56.059Z,15.65
2022-12-08T09:44:41.016Z,15.88
2022-12-08T09:47:24.021Z,16.08
2022-12-08T09:50:02.232Z,18.38
2022-12-08T09:52:35.916Z,15.88
2022-12-08T09:55:15.340Z,15.93
2022-12-08T09:57:44.891Z,14.45
2022-12-08T10:00:16.256Z,13.55
2022-12-08T10:02:47.255Z,13.90
2022-12-08T10:05:17.670Z,12.77
2022-12-08T10:07:50.659Z,12.65
2022-12-08T10:10:31.340Z,13.15
2022-12-08T10:13:06.454Z,12.82
2022-12-08T10:15:43.486Z,15.07
2022-12-08T10:18:17.300Z,13.40
2022-12-08T10:20:49.516Z,12.35
2022-12-08T10:23:25.574Z,12.32
2022-12-08T10:26:02.482Z,12.93
2022-12-08T10:28:32.152Z,11.52
2022-12-08T10:31:01.750Z,12.05
2022-12-08T10:33:32.247Z,11.25
2022-12-08T10:36:04.906Z,11.48
2022-12-08T10:38:36.541Z,10.38
2022-12-08T10:41:18.207Z,9.88
2022-12-08T10:43:50.537Z,9.98
2022-12-08T10:46:22.397Z,10.07
2022-12-08T10:48:54.408Z,9.63
2022-12-08T10:51:30.552Z,10.20
2022-12-08T10:54:00.176Z,10.25
2022-12-08T10:56:33.516Z,10.63
2022-12-08T10:59:19.460Z,9.20
2022-12-08T11:01:50.411Z,8.75
2022-12-08T11:04:21.653Z,9.23
2022-12-08T11:06:52.725Z,9.30
2022-12-08T11:09:40.421Z,8.93
2022-12-08T11:12:16.271Z,8.68
2022-12-08T11:14:53.987Z,10.13
2022-12-08T11:17:28.512Z,10.38
2022-12-08T11:20:00.203Z,13.05
2022-12-08T11:22:33.939Z,10.95
2022-12-08T11:25:06.070Z,11.05
2022-12-08T11:27:39.957Z,11.10
2022-12-08T11:30:18.364Z,11.85
2022-12-08T11:32:50.814Z,11.07
2022-12-08T11:35:26.088Z,12.38
2022-12-08T11:38:07.871Z,11.80
2022-12-08T11:40:47.957Z,11.18
2022-12-08T11:43:23.530Z,12.50
2022-12-08T11:45:59.233Z,11.80
2022-12-08T11:48:34.719Z,11.77
2022-12-08T11:51:08.173Z,11.30
2022-12-08T11:53:50.435Z,11.85
2022-12-08T11:56:23.567Z,11.07
2022-12-08T11:58:57.681Z,11.43
2022-12-08T12:01:29.398Z,10.55
2022-12-08T12:04:04.916Z,10.25
2022-12-08T12:06:55.773Z,10.82
2022-12-08T12:09:34.884Z,10.15
2022-12-08T12:12:16.733Z,10.85
2022-12-08T12:15:18.712Z,10.05
2022-12-08T12:17:50.836Z,9.90
2022-12-08T12:20:24.242Z,10.18
2022-12-08T12:22:59.548Z,9.68
2022-12-08T12:25:30.089Z,9.73
2022-12-08T12:28:03.160Z,10.18
2022-12-08T12:30:53.131Z,9.75
2022-12-08T12:33:23.433Z,10.00
2022-12-08T12:35:53.064Z,9.70
2022-12-08T12:38:38.419Z,9.85
2022-12-08T12:41:09.088Z,8.95
2022-12-08T12:43:41.306Z,9.07
2022-12-08T12:46:45.280Z,9.15
2022-12-08T12:49:53.355Z,9.40
2022-12-08T12:52:39.646Z,9.65
2022-12-08T12:55:44.373Z,9.70
2022-12-08T12:58:25.081Z,9.65
2022-12-08T13:01:29.676Z,9.35
2022-12-08T13:04:09.663Z,9.32
2022-12-08T13:06:42.907Z,12.52
2022-12-08T13:09:23.709Z,9.43
2022-12-08T13:11:55.486Z,10.65
2022-12-08T13:14:33.799Z,10.15
2022-12-08T13:17:04.511Z,8.93
2022-12-08T13:19:38.885Z,9.20
2022-12-08T13:22:38.332Z,8.88
2022-12-08T13:25:37.757Z,9.07
2022-12-08T13:28:16.731Z,9.20
2022-12-08T13:30:48.034Z,8.98
2022-12-08T13:33:21.028Z,10.20
2022-12-08T13:35:58.005Z,12.45
2022-12-08T13:38:31.030Z,11.57
2022-12-08T13:41:03.623Z,10.60
2022-12-08T13:43:51.313Z,9.65
2022-12-08T13:53:49.516Z,9.07
2022-12-08T14:01:01.558Z,9.93
2022-12-08T14:03:31.490Z,8.93
2022-12-08T14:06:13.422Z,9.65
2022-12-08T14:09:06.665Z,9.45
2022-12-08T14:11:39.420Z,9.00
2022-12-08T14:14:11.703Z,8.85
2022-12-08T14:16:42.658Z,8.50
2022-12-08T14:19:20.540Z,8.98
2022-12-08T14:21:55.899Z,8.60
2022-12-08T14:24:26.220Z,9.70
2022-12-08T14:26:58.632Z,8.77
2022-12-08T14:29:40.918Z,9.55
2022-12-08T14:32:23.776Z,9.30
2022-12-08T14:34:57.947Z,9.07
2022-12-08T14:40:02.553Z,9.55
2022-12-08T14:42:32.882Z,11.30
2022-12-08T14:45:05.703Z,10.95
2022-12-08T14:47:36.927Z,9.80
2022-12-08T14:50:28.791Z,9.10
2022-12-08T14:53:01.508Z,9.23
2022-12-08T14:55:31.804Z,9.05
2022-12-08T14:58:01.418Z,8.63
2022-12-08T15:00:31.400Z,9.45
2022-12-08T15:03:01.059Z,9.07
2022-12-08T15:05:32.640Z,9.68
2022-12-08T15:08:06.458Z,8.45
2022-12-08T15:10:38.099Z,9.60
2022-12-08T15:13:10.302Z,9.65
2022-12-08T15:15:51.728Z,9.20
2022-12-08T15:18:23.035Z,9.43
2022-12-08T15:20:54.470Z,9.32
2022-12-08T15:23:29.639Z,9.45
2022-12-08T15:25:59.646Z,9.20
2022-12-08T15:28:31.453Z,9.57
2022-12-08T15:31:01.644Z,9.80
2022-12-08T15:33:31.226Z,10.02
2022-12-08T15:36:00.789Z,10.23
2022-12-08T15:38:33.055Z,10.05
2022-12-08T15:41:03.704Z,10.02
2022-12-08T15:43:34.436Z,10.10
2022-12-08T15:46:04.017Z,10.00
2022-12-08T15:48:33.605Z,10.40
2022-12-08T15:51:03.291Z,9.85
2022-12-08T15:53:35.424Z,9.82
2022-12-08T15:58:58.058Z,9.60
2022-12-08T16:01:28.364Z,8.77
2022-12-08T16:07:20.793Z,13.43
2022-12-08T16:09:44.018Z,10.10
2022-12-08T16:12:56.902Z,10.57
2022-12-08T16:15:53.468Z,10.50
2022-12-08T16:18:10.397Z,10.02
2022-12-08T16:21:06.114Z,10.07
2022-12-08T16:23:42.436Z,10.63
2022-12-08T16:26:35.708Z,9.63
2022-12-08T16:29:07.634Z,9.27
2022-12-08T16:31:37.279Z,9.27
2022-12-08T16:34:06.892Z,9.55
2022-12-08T16:36:36.489Z,10.18
2022-12-08T16:39:06.648Z,9.02
2022-12-08T16:41:51.324Z,8.55
2022-12-08T16:44:20.876Z,9.63
2022-12-08T16:46:50.434Z,8.32
2022-12-08T16:49:19.996Z,8.60
2022-12-08T16:51:49.569Z,8.35
2022-12-08T16:54:19.115Z,9.25
2022-12-08T16:56:51.330Z,9.13
2022-12-08T16:59:20.843Z,9.70
2022-12-08T17:01:50.386Z,9.93
2022-12-08T17:04:35.351Z,9.23
2022-12-08T17:07:05.110Z,9.35
2022-12-08T17:09:35.031Z,9.45
2022-12-08T17:12:07.743Z,9.07
2022-12-08T17:14:37.727Z,9.43
2022-12-08T17:17:07.646Z,9.25
2022-12-08T17:19:37.343Z,9.68
2022-12-08T17:22:06.940Z,9.32
2022-12-08T17:24:36.537Z,9.88
2022-12-08T17:27:08.696Z,9.27
2022-12-08T17:29:38.292Z,9.65
2022-12-08T17:32:08.685Z,9.73
2022-12-08T17:34:38.308Z,9.82
2022-12-08T17:37:07.902Z,9.95
2022-12-08T17:39:37.503Z,9.95
2022-12-08T17:42:09.976Z,9.68
2022-12-08T17:44:39.529Z,10.40
2022-12-08T17:47:09.183Z,9.15
2022-12-08T17:49:38.770Z,10.02
2022-12-08T17:52:09.837Z,9.63
2022-12-08T17:54:39.628Z,9.50
2022-12-08T17:57:11.844Z,27.90
2022-12-08T17:59:41.394Z,11.55
2022-12-08T18:02:13.596Z,10.02
2022-12-08T18:04:43.177Z,10.57
2022-12-08T18:07:12.740Z,9.88
2022-12-08T18:09:42.309Z,10.07
2022-12-08T18:12:18.032Z,10.13
2022-12-08T18:14:51.695Z,10.10
2022-12-08T18:17:21.452Z,10.93
2022-12-08T18:19:51.071Z,11.05
2022-12-08T18:22:20.670Z,9.82
2022-12-08T18:24:50.275Z,9.35
2022-12-08T18:27:22.476Z,8.95
2022-12-08T18:29:52.019Z,8.27
2022-12-08T18:32:23.631Z,8.55
2022-12-08T18:34:53.604Z,9.90
2022-12-08T18:37:23.207Z,9.93
2022-12-08T18:39:52.797Z,9.82
2022-12-08T18:42:28.362Z,9.35
2022-12-08T18:45:02.820Z,13.35
2022-12-08T18:50:01.783Z,9.18
2022-12-08T18:52:32.507Z,8.60
2022-12-08T18:55:09.511Z,10.10
2022-12-08T18:57:43.657Z,9.30
2022-12-08T19:00:15.799Z,9.27
2022-12-08T19:02:45.664Z,9.75
2022-12-08T19:05:16.500Z,9.32
2022-12-08T19:07:46.603Z,8.82
2022-12-08T19:10:16.300Z,9.35
2022-12-08T19:12:48.688Z,9.00
2022-12-08T19:15:18.292Z,9.15
2022-12-08T19:17:47.987Z,9.85
2022-12-08T19:20:17.657Z,9.40
2022-12-08T19:22:47.274Z,9.20
2022-12-08T19:25:16.839Z,9.75
2022-12-08T19:27:48.994Z,10.40
2022-12-08T19:30:19.036Z,9.25
2022-12-08T19:32:48.660Z,10.52
2022-12-08T19:35:18.203Z,9.88
2022-12-08T19:37:47.787Z,10.88
2022-12-08T19:40:31.696Z,9.77
2022-12-08T19:43:16.334Z,10.48
2022-12-08T19:45:45.971Z,10.88
2022-12-08T19:48:15.621Z,10.80
2022-12-08T19:50:45.201Z,10.45
2022-12-08T19:53:17.237Z,10.73
2022-12-08T19:55:47.271Z,11.07
2022-12-08T19:58:19.777Z,11.07
2022-12-08T20:00:49.880Z,11.35
2022-12-08T20:03:21.038Z,11.50
2022-12-08T20:05:53.296Z,10.88
2022-12-08T20:08:22.947Z,10.07
2022-12-08T20:10:55.950Z,11.60
2022-12-08T20:13:40.621Z,11.65
2022-12-08T20:16:11.435Z,11.90
2022-12-08T20:18:42.173Z,11.73
2022-12-08T20:21:12.786Z,12.10
2022-12-08T20:23:42.416Z,11.85
2022-12-08T20:26:15.387Z,11.70
2022-12-08T20:28:47.607Z,24.52
2022-12-08T20:31:21.231Z,21.52
2022-12-08T20:33:51.246Z,13.18
2022-12-08T20:36:22.158Z,12.48
2022-12-08T20:38:53.586Z,12.52
2022-12-08T20:41:25.299Z,11.82
2022-12-08T20:43:57.556Z,11.45
2022-12-08T20:46:27.220Z,11.73
2022-12-08T20:49:01.221Z,12.10
2022-12-08T20:51:32.199Z,12.43
2022-12-08T20:54:02.471Z,12.15
2022-12-08T20:56:32.419Z,11.93
2022-12-08T20:59:04.641Z,12.38
2022-12-08T21:01:34.487Z,12.35
2022-12-08T21:04:04.446Z,12.70
2022-12-08T21:06:34.167Z,12.38
2022-12-08T21:09:03.871Z,12.52
2022-12-08T21:11:33.796Z,12.23
2022-12-08T21:14:06.855Z,12.43
2022-12-08T21:16:36.651Z,13.18
2022-12-08T21:19:06.676Z,12.93
2022-12-08T21:21:36.570Z,13.63
2022-12-08T21:24:06.919Z,13.32
2022-12-08T21:26:36.593Z,13.15
2022-12-08T21:29:08.874Z,13.50
2022-12-08T21:31:38.649Z,13.60
2022-12-08T21:34:08.375Z,14.85
2022-12-08T21:36:38.173Z,12.98
2022-12-08T21:39:12.856Z,14.85
2022-12-08T21:41:55.086Z,14.48
2022-12-08T21:44:27.457Z,13.95
2022-12-08T21:46:57.157Z,14.23
2022-12-08T21:49:26.928Z,13.35
2022-12-08T21:51:56.705Z,13.70
2022-12-08T21:54:26.550Z,13.80
2022-12-08T21:56:56.194Z,13.93
2022-12-08T21:59:28.489Z,13.82
2022-12-08T22:01:58.607Z,14.50
2022-12-08T22:04:28.574Z,13.77
2022-12-08T22:06:58.409Z,13.73
2022-12-08T22:09:28.169Z,14.10
2022-12-08T22:11:59.050Z,14.20
2022-12-08T22:14:31.365Z,13.48
2022-12-08T22:17:01.279Z,13.80
2022-12-08T22:19:30.984Z,13.23
2022-12-08T22:22:00.762Z,14.68
2022-12-08T22:24:32.966Z,13.90
2022-12-08T22:27:02.848Z,13.93
2022-12-08T22:29:35.286Z,14.32
2022-12-08T22:32:05.237Z,14.20
2022-12-08T22:34:35.148Z,14.32
2022-12-08T22:37:04.893Z,15.20
2022-12-08T22:39:35.845Z,15.02
2022-12-08T22:42:05.702Z,14.77
2022-12-08T22:44:38.099Z,14.55
2022-12-08T22:47:08.278Z,15.13
2022-12-08T22:49:38.142Z,15.00
2022-12-08T22:52:08.255Z,14.35
2022-12-08T22:54:38.428Z,14.50
2022-12-08T22:57:08.049Z,14.13
2022-12-08T22:59:40.972Z,15.13
2022-12-08T23:02:10.949Z,15.30
2022-12-08T23:04:40.817Z,15.50
2022-12-08T23:07:10.678Z,13.88
2022-12-08T23:09:40.249Z,13.73
2022-12-08T23:12:10.176Z,14.32
2022-12-08T23:14:42.381Z,14.35
2022-12-08T23:17:12.081Z,14.68
2022-12-08T23:19:42.018Z,14.25
2022-12-08T23:22:11.611Z,14.18
2022-12-08T23:24:41.296Z,13.93
2022-12-08T23:27:10.836Z,14.63
2022-12-08T23:29:43.039Z,13.80
2022-12-08T23:32:12.711Z,14.25
2022-12-08T23:34:42.637Z,14.48
2022-12-08T23:37:12.236Z,13.73
2022-12-08T23:39:41.844Z,14.07
2022-12-08T23:42:11.545Z,13.90
2022-12-08T23:44:43.823Z,13.57
2022-12-08T23:47:13.506Z,14.20
2022-12-08T23:49:43.145Z,13.63
2022-12-08T23:52:14.372Z,14.50
2022-12-08T23:54:44.958Z,13.57
2022-12-08T23:57:14.746Z,13.70
2022-12-08T23:59:47.283Z,14.05
